• Join FlightAware (Why Join?)
  • Login
  • US Flag 
11:39AM EDT


 

Airport Tracker/Info


-or-


 

Live Flight TrackerFlight Track Log ✈ SWA260 ✈ 30-Apr-2013 ✈ KPHX - KSAT

Flight Track Log - Related Links

Times and Time Zones

All times are in EDT time to prevent confusion due to time zone crossing. See the SWA260 flight status page for this flight to view local times or setup timezone preferences in your user account.

Time Position Orientation Groundspeed Altitude Reporting Facility
EDT Latitude Longitude Course Direction KTS MPH feet Rate Location/Type
12:34PM 33.4333 -111.9833 90° East 187 215 2,000  Level Phoenix TRACON
12:34PM 33.4333 -111.9333 90° East 198 228 3,300 1,920 Climbing Phoenix TRACON
12:35PM 33.4333 -111.8667 90° East 264 304 5,200 2,160 Climbing Phoenix TRACON
12:36PM 33.4308 -111.8414 97° East 264 304 6,000 2,700 Climbing Albuquerque Center
12:37PM 33.3653 -111.8031 154° Southeast 278 320 8,800 2,400 Climbing Albuquerque Center
12:38PM 33.2936 -111.8331 199° South 273 314 11,000 2,220 Climbing Albuquerque Center
12:39PM 33.2103 -111.8703 200° South 317 365 13,500 2,100 Climbing Albuquerque Center
12:40PM 33.1247 -111.9092 201° Southwest 327 376 15,400 1,740 Climbing Albuquerque Center
12:41PM 33.0244 -111.9306 190° South 375 432 17,200 2,220 Climbing Albuquerque Center
12:42PM 32.8983 -111.9047 170° South 387 445 20,000 2,280 Climbing Albuquerque Center
12:43PM 32.8353 -111.7994 125° Southeast 393 452 22,000 1,740 Climbing Albuquerque Center
12:44PM 32.7808 -111.6836 119° Southeast 400 460 23,700 1,560 Climbing Albuquerque Center
12:45PM 32.7258 -111.5653 119° Southeast 410 472 25,300 1,620 Climbing Albuquerque Center
12:46PM 32.6689 -111.4444 119° Southeast 418 481 27,100 1,440 Climbing Albuquerque Center
12:47PM 32.5992 -111.2997 120° Southeast 421 484 28,300 1,200 Climbing Albuquerque Center
12:48PM 32.5403 -111.1744 119° Southeast 427 491 29,600 1,200 Climbing Albuquerque Center
12:49PM 32.4800 -111.0500 120° Southeast 433 498 30,800 1,380 Climbing Albuquerque Center
12:50PM 32.4211 -110.9261 119° Southeast 434 499 32,500 1,620 Climbing Albuquerque Center
12:51PM 32.3658 -110.8083 119° Southeast 420 483 34,200 1,080 Climbing Albuquerque Center
12:52PM 32.3089 -110.6936 120° Southeast 408 470 34,800 300 Climbing Albuquerque Center
12:53PM 32.2600 -110.5433 111° Southeast 415 478 34,900  Climbing Albuquerque Center
12:54PM 32.2481 -110.4100 96° East 410 472 34,900  Level Albuquerque Center
12:55PM 32.2372 -110.2850 96° East 413 475 34,900  Level Albuquerque Center
12:56PM 32.2219 -110.1253 96° East 413 475 34,900  Level Albuquerque Center
12:57PM 32.2097 -109.9897 96° East 419 482 34,900  Level Albuquerque Center
12:58PM 32.1950 -109.8544 97° East 421 484 34,900  Level Albuquerque Center
12:59PM 32.1828 -109.7203 96° East 416 479 34,900  Level Albuquerque Center
01:00PM 32.1683 -109.5594 95° East 416 479 34,900  Level Albuquerque Center
01:01PM 32.1730 -109.5821 95° East  Level FlightAware Approximate
01:02PM 32.1564 -109.4250 96° East 416 479 34,900  Level Albuquerque Center
01:03PM 32.1431 -109.2917 97° East 416 479 34,900  Level Albuquerque Center
01:04PM 32.1303 -109.1572 96° East 417 480 34,900  Level Albuquerque Center
01:05PM 32.1142 -108.9944 97° East 421 484 34,900  Level Albuquerque Center
01:06PM 32.1014 -108.8603 96° East 419 482 34,900  Level Albuquerque Center
01:07PM 32.0872 -108.7247 97° East 421 484 34,900  Level Albuquerque Center
01:08PM 32.0731 -108.5892 97° East 422 486 34,900  Level Albuquerque Center
01:09PM 32.0594 -108.4533 97° East 423 487 34,900  Level Albuquerque Center
01:10PM 32.0428 -108.2900 97° East 424 488 34,900  Level Albuquerque Center
01:11PM 32.0278 -108.1531 97° East 426 490 34,900  Level Albuquerque Center
01:12PM 32.0119 -108.0147 98° East 429 494 34,900  Level Albuquerque Center
01:13PM 31.9978 -107.8747 97° East 431 496 34,900  Level Albuquerque Center
01:14PM 31.9831 -107.7375 97° East 430 495 34,900  Level Albuquerque Center
01:15PM 31.9658 -107.5683 97° East 433 498 34,900  Level Albuquerque Center
01:16PM 31.9503 -107.4269 97° East 437 503 34,900  Level Albuquerque Center
01:17PM 31.9344 -107.2850 97° East 440 506 34,900  Level Albuquerque Center
01:18PM 31.9192 -107.1453 97° East 437 503 34,900  Level Albuquerque Center
01:19PM 31.9022 -107.0044 98° East 438 504 34,900  Level Albuquerque Center
01:20PM 31.8831 -106.8342 98° East 440 506 34,900  Level Albuquerque Center
01:21PM 31.8658 -106.6919 98° East 441 507 34,900  Level Albuquerque Center
01:22PM 31.8475 -106.5447 98° East 442 509 34,900  Level Albuquerque Center
01:23PM 31.8325 -106.3997 97° East 446 513 34,900  Level Albuquerque Center
01:24PM 31.8136 -106.2556 99° East 446 513 34,900  Level Albuquerque Center
01:25PM 31.7747 -106.1189 108° East 444 511 34,900  Level Albuquerque Center
01:26PM 31.7328 -105.9525 106° East 443 510 34,900  Level Albuquerque Center
01:27PM 31.6978 -105.8142 107° East 443 510 34,900  Level Albuquerque Center
01:28PM 31.6622 -105.6750 107° East 444 511 34,900  Level Albuquerque Center
01:29PM 31.6289 -105.5364 106° East 442 509 34,900  Level Albuquerque Center
01:30PM 31.5933 -105.3975 107° East 443 510 34,900  Level Albuquerque Center
01:31PM 31.5581 -105.2586 107° East 443 510 34,900  Level Albuquerque Center
01:33PM 31.5236 -105.1206 106° East 441 507 34,900  Level Albuquerque Center
01:34PM 31.4814 -104.9533 106° East 443 510 34,900  Level Albuquerque Center
01:35PM 31.4453 -104.8153 107° East 443 510 34,900  Level Albuquerque Center
01:36PM 31.4089 -104.6761 107° East 443 510 34,900  Level Albuquerque Center
01:37PM 31.3733 -104.5369 107° East 444 511 34,900  Level Albuquerque Center
01:38PM 31.3369 -104.3981 107° East 445 512 34,900  Level Albuquerque Center
01:39PM 31.3003 -104.2603 107° East 443 510 34,900  Level Albuquerque Center
01:40PM 31.2636 -104.1225 107° East 444 511 34,900  Level Albuquerque Center
01:41PM 31.2200 -103.9569 107° East 444 511 34,900  Level Albuquerque Center
01:42PM 31.1819 -103.8186 108° East 446 513 34,900  Level Albuquerque Center
01:43PM 31.1481 -103.6922 107° East 445 512 34,900  Level Albuquerque Center
01:44PM 31.1064 -103.5267 106° East 444 511 34,900  Level Albuquerque Center
01:45PM 31.0706 -103.3881 107° East 446 513 34,900  Level Albuquerque Center
01:46PM 31.0350 -103.2508 107° East 445 512 34,900  Level Albuquerque Center
01:47PM 31.0000 -103.1156 107° East 440 506 34,900  Level Albuquerque Center
01:48PM 30.9642 -102.9786 107° East 441 507 34,900  Level Albuquerque Center
01:49PM 30.9289 -102.8408 107° East 444 511 34,900  Level Albuquerque Center
01:50PM 30.8864 -102.6769 107° East 445 512 34,900  Level Albuquerque Center
01:51PM 30.8497 -102.5403 107° East 446 513 34,900  Level Albuquerque Center
01:52PM 30.8136 -102.4028 107° East 447 514 34,900  Level Albuquerque Center
01:53PM 30.7769 -102.2656 107° East 448 516 34,900  Level Albuquerque Center
01:54PM 30.7331 -102.1003 107° East 449 517 34,900  Level Albuquerque Center
01:55PM 30.6964 -101.9639 107° East 448 516 34,900  Level Albuquerque Center
01:56PM 30.6589 -101.8272 108° East 449 517 34,900  Level Albuquerque Center
01:57PM 30.6214 -101.6892 107° East 447 514 34,900  Level Houston Center
01:58PM 30.5836 -101.5425 107° East 449 517 34,900  Level Houston Center
01:59PM 30.5450 -101.4044 108° East 450 518 34,900  Level Houston Center
02:01PM 30.5069 -101.2667 108° East 449 517 34,900  Level Houston Center
02:02PM 30.4608 -101.1006 108° East 451 519 34,900  Level Houston Center
02:03PM 30.4231 -100.9622 108° East 450 518 34,900  Level Houston Center
02:04PM 30.3844 -100.8258 108° East 446 513 34,900  Level Houston Center
02:05PM 30.3458 -100.6908 108° East 442 509 34,900  Level Houston Center
02:06PM 30.3075 -100.5547 108° East 442 509 34,900  Level Houston Center
02:07PM 30.2697 -100.4175 108° East 445 512 34,900  Level Houston Center
02:08PM 30.2311 -100.2808 108° East 443 510 34,900 -1,260 Level Houston Center
02:09PM 30.1836 -100.1153 108° East 444 511 32,400 -2,940 Descending Houston Center
02:10PM 30.1450 -99.9753 108° East 452 520 28,900 -3,060 Descending Houston Center
02:11PM 30.1056 -99.8400 109° East 444 511 26,100 -2,640 Descending Houston Center
02:12PM 30.0669 -99.7094 109° East 432 497 23,500 -2,520 Descending Houston Center
02:13PM 30.0306 -99.5836 108° East 417 480 21,000 -2,400 Descending Houston Center
02:14PM 29.9950 -99.4619 109° East 404 465 18,600 -2,280 Descending Houston Center
02:15PM 29.9600 -99.3442 109° East 389 448 16,300 -2,400 Descending Houston Center
02:16PM 29.9328 -99.2531 109° East 370 426 14,600 -2,760 Descending Houston Center
02:16PM 29.9206 -99.2114 109° East 364 419 13,500 -2,580 Descending Houston Center
02:16PM 29.9047 -99.1694 114° Southeast 360 414 12,500 -2,280 Descending Houston Center
02:17PM 29.8800 -99.1031 113° Southeast 367 422 11,200 -2,040 Descending Houston Center
02:17PM 29.8639 -99.0611 114° Southeast 361 415 10,500 -1,200 Descending Houston Center
02:18PM 29.8381 -98.9922 113° Southeast 344 396 10,000 -840 Descending Houston Center
02:18PM 29.8256 -98.9594 114° Southeast 316 364 9,700 -1,200 Descending Houston Center
02:19PM 29.8078 -98.9033 110° East 302 348 8,800 -1,500 Descending Houston Center
02:19PM 29.7947 -98.8717 115° Southeast 285 328 8,200 -1,800 Descending Houston Center
02:20PM 29.7742 -98.8122 112° Southeast 290 334 7,000 -1,680 Descending Houston Center
02:20PM 29.7639 -98.7861 114° Southeast 287 330 6,500 -1,260 Descending Houston Center
02:21PM 29.7344 -98.7331 123° Southeast 284 327 5,700 -1,320 Descending Houston Center
02:22PM 29.7197 -98.7144 132° Southeast 270 311 5,200 -2,040 Descending Houston Center
02:22PM 29.6819 -98.6656 132° Southeast 265 305 3,600 -1,920 Descending Houston Center
02:23PM 29.6700 -98.6531 138° Southeast 259 298 3,300 -600 Descending Houston Center
02:23PM 29.6361 -98.6064 130° Southeast 253 291 3,000 -300 Descending Houston Center
02:24PM 29.6247 -98.5933 135° Southeast 228 262 3,000 -480 Level Houston Center
02:24PM 29.5992 -98.5581 130° Southeast 191 220 2,500 -780 Descending Houston Center
02:25PM 29.5683 -98.5178 131° Southeast 169 194 1,600 -60 Descending Houston Center
02:26PM 29.5431 -98.4858 132° Southeast 133 153 2,400 720 Climbing Houston Center
02:28PM 29.5333 -98.4667 139° Southeast  Level FlightAware Approximate
02:35PM 29.5340 -98.4691 139° Southeast  Level Estimated
02:36PM 29.5333 -98.4667 139° Southeast  Level FlightAware Approximate
02:37PM 29.5340 -98.4691 139° Southeast  Level Estimated